sensor_id;sensor_type;location;lat;lon;timestamp;pressure;altitude;pressure_sealevel;temperature;humidity
15050;BME280;7622;42.724;23.250;2023-02-14T00:01:38;96078.22;;;1.97;100.00
15050;BME280;7622;42.724;23.250;2023-02-14T00:04:05;96084.56;;;1.87;100.00
15050;BME280;7622;42.724;23.250;2023-02-14T00:06:33;96082.19;;;1.83;100.00
15050;BME280;7622;42.724;23.250;2023-02-14T00:09:00;96085.38;;;1.89;100.00
15050;BME280;7622;42.724;23.250;2023-02-14T00:11:28;96075.78;;;1.94;100.00
15050;BME280;7622;42.724;23.250;2023-02-14T00:13:57;96078.34;;;1.94;100.00
15050;BME280;7622;42.724;23.250;2023-02-14T00:16:42;96078.28;;;1.96;100.00
15050;BME280;7622;42.724;23.250;2023-02-14T00:19:10;96086.03;;;1.94;100.00
15050;BME280;7622;42.724;23.250;2023-02-14T00:21:38;96078.75;;;2.07;100.00
15050;BME280;7622;42.724;23.250;2023-02-14T00:24:07;96089.03;;;2.06;100.00
15050;BME280;7622;42.724;23.250;2023-02-14T00:26:34;96082.59;;;2.17;100.00
15050;BME280;7622;42.724;23.250;2023-02-14T00:29:04;96086.66;;;2.23;100.00
15050;BME280;7622;42.724;23.250;2023-02-14T00:31:32;96079.22;;;2.17;100.00
15050;BME280;7622;42.724;23.250;2023-02-14T00:33:59;96056.03;;;2.20;100.00
15050;BME280;7622;42.724;23.250;2023-02-14T00:36:26;95981.97;;;1.69;100.00
15050;BME280;7622;42.724;23.250;2023-02-14T00:38:53;96082.72;;;2.36;100.00
15050;BME280;7622;42.724;23.250;2023-02-14T00:41:20;96074.16;;;2.37;100.00
15050;BME280;7622;42.724;23.250;2023-02-14T00:43:47;96076.03;;;2.55;100.00
15050;BME280;7622;42.724;23.250;2023-02-14T00:46:16;96076.22;;;2.49;100.00
15050;BME280;7622;42.724;23.250;2023-02-14T00:48:44;96067.66;;;2.50;100.00
15050;BME280;7622;42.724;23.250;2023-02-14T00:51:11;96069.84;;;2.59;100.00
15050;BME280;7622;42.724;23.250;2023-02-14T00:53:38;96069.50;;;2.47;100.00
15050;BME280;7622;42.724;23.250;2023-02-14T00:56:05;96055.97;;;2.43;100.00
15050;BME280;7622;42.724;23.250;2023-02-14T00:58:32;96062.66;;;2.47;100.00
15050;BME280;7622;42.724;23.250;2023-02-14T01:00:59;96060.97;;;2.46;100.00
15050;BME280;7622;42.724;23.250;2023-02-14T01:03:27;96052.94;;;2.33;100.00
15050;BME280;7622;42.724;23.250;2023-02-14T01:05:54;96062.38;;;2.33;100.00
15050;BME280;7622;42.724;23.250;2023-02-14T01:08:21;96056.84;;;2.42;100.00
15050;BME280;7622;42.724;23.250;2023-02-14T01:10:48;96049.25;;;2.41;100.00
15050;BME280;7622;42.724;23.250;2023-02-14T01:13:15;96055.38;;;2.36;100.00
15050;BME280;7622;42.724;23.250;2023-02-14T01:15:44;96053.19;;;2.27;100.00
15050;BME280;7622;42.724;23.250;2023-02-14T01:18:12;96035.88;;;2.32;100.00
15050;BME280;7622;42.724;23.250;2023-02-14T01:20:40;96050.31;;;2.35;100.00
15050;BME280;7622;42.724;23.250;2023-02-14T01:23:07;96044.56;;;2.28;100.00
15050;BME280;7622;42.724;23.250;2023-02-14T01:25:35;96039.53;;;2.27;100.00
15050;BME280;7622;42.724;23.250;2023-02-14T01:28:03;96042.09;;;2.27;100.00
15050;BME280;7622;42.724;23.250;2023-02-14T01:30:30;96038.75;;;2.25;100.00
15050;BME280;7622;42.724;23.250;2023-02-14T01:32:57;96031.06;;;2.25;100.00
15050;BME280;7622;42.724;23.250;2023-02-14T01:35:24;96039.63;;;2.24;100.00
15050;BME280;7622;42.724;23.250;2023-02-14T01:37:53;96031.59;;;2.33;100.00
15050;BME280;7622;42.724;23.250;2023-02-14T01:40:20;96018.25;;;2.25;100.00
15050;BME280;7622;42.724;23.250;2023-02-14T01:42:47;96017.66;;;2.40;100.00
15050;BME280;7622;42.724;23.250;2023-02-14T01:45:16;96022.53;;;2.46;100.00
15050;BME280;7622;42.724;23.250;2023-02-14T01:47:45;96015.66;;;2.47;100.00
15050;BME280;7622;42.724;23.250;2023-02-14T01:50:18;96013.41;;;2.39;100.00
15050;BME280;7622;42.724;23.250;2023-02-14T01:52:50;96004.19;;;2.35;100.00
15050;BME280;7622;42.724;23.250;2023-02-14T01:55:23;96003.44;;;2.31;100.00
15050;BME280;7622;42.724;23.250;2023-02-14T01:57:52;96005.06;;;2.34;100.00
15050;BME280;7622;42.724;23.250;2023-02-14T02:00:21;96011.09;;;2.33;100.00
15050;BME280;7622;42.724;23.250;2023-02-14T02:03:07;96003.69;;;2.47;100.00
15050;BME280;7622;42.724;23.250;2023-02-14T02:05:37;96003.69;;;2.47;100.00
15050;BME280;7622;42.724;23.250;2023-02-14T02:08:06;96012.25;;;2.46;100.00
15050;BME280;7622;42.724;23.250;2023-02-14T02:10:35;96013.88;;;2.49;100.00
15050;BME280;7622;42.724;23.250;2023-02-14T02:13:05;96004.22;;;2.33;100.00
15050;BME280;7622;42.724;23.250;2023-02-14T02:15:38;96005.47;;;2.45;100.00
15050;BME280;7622;42.724;23.250;2023-02-14T02:18:10;96002.13;;;2.43;100.00
15050;BME280;7622;42.724;23.250;2023-02-14T02:24:01;95997.81;;;2.44;100.00
15050;BME280;7622;42.724;23.250;2023-02-14T02:30:05;95991.88;;;2.43;100.00
15050;BME280;7622;42.724;23.250;2023-02-14T02:33:01;95992.34;;;2.53;100.00
15050;BME280;7622;42.724;23.250;2023-02-14T02:35:44;95986.47;;;2.49;100.00
15050;BME280;7622;42.724;23.250;2023-02-14T02:38:28;95969.69;;;2.42;100.00
15050;BME280;7622;42.724;23.250;2023-02-14T02:41:03;95972.19;;;2.44;100.00
15050;BME280;7622;42.724;23.250;2023-02-14T02:43:43;95969.09;;;2.35;100.00
15050;BME280;7622;42.724;23.250;2023-02-14T02:46:19;95974.22;;;2.35;100.00
15050;BME280;7622;42.724;23.250;2023-02-14T02:49:10;95980.50;;;2.28;100.00
15050;BME280;7622;42.724;23.250;2023-02-14T02:51:51;95971.84;;;2.31;100.00
15050;BME280;7622;42.724;23.250;2023-02-14T02:54:41;95983.47;;;2.40;100.00
15050;BME280;7622;42.724;23.250;2023-02-14T02:57:13;95977.22;;;2.25;100.00
15050;BME280;7622;42.724;23.250;2023-02-14T02:59:43;95976.16;;;2.30;100.00
15050;BME280;7622;42.724;23.250;2023-02-14T03:02:14;95975.44;;;2.27;100.00
15050;BME280;7622;42.724;23.250;2023-02-14T03:04:44;95970.69;;;2.18;100.00
15050;BME280;7622;42.724;23.250;2023-02-14T03:07:19;95982.09;;;2.31;100.00
15050;BME280;7622;42.724;23.250;2023-02-14T03:10:05;95975.19;;;2.33;100.00
15050;BME280;7622;42.724;23.250;2023-02-14T03:12:48;95978.47;;;2.15;100.00
15050;BME280;7622;42.724;23.250;2023-02-14T03:15:29;95972.59;;;2.13;100.00
15050;BME280;7622;42.724;23.250;2023-02-14T03:18:06;95967.09;;;2.22;100.00
15050;BME280;7622;42.724;23.250;2023-02-14T03:20:46;95968.31;;;2.13;100.00
15050;BME280;7622;42.724;23.250;2023-02-14T03:23:19;95958.16;;;2.10;100.00
15050;BME280;7622;42.724;23.250;2023-02-14T03:25:55;95954.69;;;2.33;100.00
15050;BME280;7622;42.724;23.250;2023-02-14T03:28:34;95950.44;;;2.12;100.00
15050;BME280;7622;42.724;23.250;2023-02-14T03:31:08;95935.59;;;2.20;100.00
15050;BME280;7622;42.724;23.250;2023-02-14T03:33:43;95935.88;;;2.12;100.00
15050;BME280;7622;42.724;23.250;2023-02-14T03:36:17;95943.72;;;2.08;100.00
15050;BME280;7622;42.724;23.250;2023-02-14T03:38:51;95951.13;;;2.15;100.00
15050;BME280;7622;42.724;23.250;2023-02-14T03:41:25;95956.34;;;2.14;100.00
15050;BME280;7622;42.724;23.250;2023-02-14T03:43:56;95952.78;;;2.16;100.00
15050;BME280;7622;42.724;23.250;2023-02-14T03:46:27;95945.66;;;2.03;100.00
15050;BME280;7622;42.724;23.250;2023-02-14T03:48:58;95943.88;;;2.05;100.00
15050;BME280;7622;42.724;23.250;2023-02-14T03:51:28;95936.28;;;2.02;100.00
15050;BME280;7622;42.724;23.250;2023-02-14T03:54:01;95940.00;;;1.94;100.00
15050;BME280;7622;42.724;23.250;2023-02-14T03:56:32;95934.22;;;1.89;100.00
15050;BME280;7622;42.724;23.250;2023-02-14T03:59:06;95918.25;;;1.83;100.00
15050;BME280;7622;42.724;23.250;2023-02-14T04:01:36;95904.63;;;1.82;100.00
15050;BME280;7622;42.724;23.250;2023-02-14T04:04:05;95927.19;;;1.94;100.00
15050;BME280;7622;42.724;23.250;2023-02-14T04:06:33;95916.19;;;1.92;100.00
15050;BME280;7622;42.724;23.250;2023-02-14T04:09:02;95924.63;;;1.94;100.00
15050;BME280;7622;42.724;23.250;2023-02-14T04:11:29;95873.00;;;1.62;100.00
15050;BME280;7622;42.724;23.250;2023-02-14T04:14:00;95920.16;;;2.00;100.00
15050;BME280;7622;42.724;23.250;2023-02-14T04:16:30;95907.66;;;1.92;100.00
15050;BME280;7622;42.724;23.250;2023-02-14T04:19:21;95925.41;;;1.96;100.00
15050;BME280;7622;42.724;23.250;2023-02-14T04:21:49;95915.28;;;1.93;100.00
15050;BME280;7622;42.724;23.250;2023-02-14T04:24:19;95916.47;;;2.07;100.00
15050;BME280;7622;42.724;23.250;2023-02-14T04:26:46;95914.25;;;1.97;100.00
15050;BME280;7622;42.724;23.250;2023-02-14T04:29:34;95921.13;;;1.97;100.00
15050;BME280;7622;42.724;23.250;2023-02-14T04:32:01;95913.63;;;1.92;100.00
15050;BME280;7622;42.724;23.250;2023-02-14T04:34:28;95915.94;;;1.98;100.00
15050;BME280;7622;42.724;23.250;2023-02-14T04:36:55;95909.00;;;2.01;100.00
15050;BME280;7622;42.724;23.250;2023-02-14T04:39:23;95913.38;;;1.98;100.00
15050;BME280;7622;42.724;23.250;2023-02-14T04:41:50;95909.53;;;1.87;100.00
15050;BME280;7622;42.724;23.250;2023-02-14T04:44:16;95895.78;;;1.89;100.00
15050;BME280;7622;42.724;23.250;2023-02-14T04:46:43;95899.09;;;1.93;100.00
15050;BME280;7622;42.724;23.250;2023-02-14T04:49:10;95900.22;;;1.86;100.00
15050;BME280;7622;42.724;23.250;2023-02-14T04:51:37;95894.72;;;1.95;100.00
15050;BME280;7622;42.724;23.250;2023-02-14T04:54:03;95890.56;;;1.92;100.00
15050;BME280;7622;42.724;23.250;2023-02-14T04:56:32;95896.81;;;1.85;100.00
15050;BME280;7622;42.724;23.250;2023-02-14T04:58:58;95898.97;;;1.74;100.00
15050;BME280;7622;42.724;23.250;2023-02-14T05:01:25;95900.28;;;1.84;100.00
15050;BME280;7622;42.724;23.250;2023-02-14T05:03:52;95900.88;;;1.91;100.00
15050;BME280;7622;42.724;23.250;2023-02-14T05:06:19;95903.19;;;1.97;100.00
15050;BME280;7622;42.724;23.250;2023-02-14T05:08:46;95885.19;;;1.98;100.00
15050;BME280;7622;42.724;23.250;2023-02-14T05:11:12;95896.34;;;1.97;100.00
15050;BME280;7622;42.724;23.250;2023-02-14T05:13:41;95897.47;;;1.90;100.00
15050;BME280;7622;42.724;23.250;2023-02-14T05:16:07;95895.59;;;1.94;100.00
15050;BME280;7622;42.724;23.250;2023-02-14T05:18:34;95897.28;;;1.95;100.00
15050;BME280;7622;42.724;23.250;2023-02-14T05:21:01;95893.25;;;1.89;100.00
15050;BME280;7622;42.724;23.250;2023-02-14T05:23:28;95875.59;;;1.82;100.00
15050;BME280;7622;42.724;23.250;2023-02-14T05:25:54;95881.84;;;1.96;100.00
15050;BME280;7622;42.724;23.250;2023-02-14T05:28:21;95890.13;;;2.03;100.00
15050;BME280;7622;42.724;23.250;2023-02-14T05:30:50;95875.22;;;2.13;100.00
15050;BME280;7622;42.724;23.250;2023-02-14T05:33:17;95896.16;;;2.22;100.00
15050;BME280;7622;42.724;23.250;2023-02-14T05:35:44;95892.63;;;2.05;100.00
15050;BME280;7622;42.724;23.250;2023-02-14T05:38:11;95892.63;;;2.05;100.00
15050;BME280;7622;42.724;23.250;2023-02-14T05:40:38;95891.75;;;2.06;100.00
15050;BME280;7622;42.724;23.250;2023-02-14T05:43:05;95889.19;;;2.06;100.00
15050;BME280;7622;42.724;23.250;2023-02-14T05:45:32;95890.06;;;2.05;100.00
15050;BME280;7622;42.724;23.250;2023-02-14T05:48:00;95891.69;;;2.07;100.00
15050;BME280;7622;42.724;23.250;2023-02-14T05:50:27;95889.97;;;2.28;100.00
15050;BME280;7622;42.724;23.250;2023-02-14T05:52:54;95879.19;;;2.40;100.00
15050;BME280;7622;42.724;23.250;2023-02-14T05:55:21;95886.84;;;2.42;100.00
15050;BME280;7622;42.724;23.250;2023-02-14T05:57:49;95888.56;;;2.61;100.00
15050;BME280;7622;42.724;23.250;2023-02-14T06:00:16;95885.22;;;2.39;100.00
15050;BME280;7622;42.724;23.250;2023-02-14T06:02:43;95884.06;;;2.46;100.00
15050;BME280;7622;42.724;23.250;2023-02-14T06:05:12;95885.31;;;2.56;100.00
15050;BME280;7622;42.724;23.250;2023-02-14T06:07:39;95892.44;;;2.70;100.00
15050;BME280;7622;42.724;23.250;2023-02-14T06:10:08;95888.91;;;2.72;100.00
15050;BME280;7622;42.724;23.250;2023-02-14T06:12:35;95893.84;;;2.77;100.00
15050;BME280;7622;42.724;23.250;2023-02-14T06:15:02;95904.44;;;2.90;100.00
15050;BME280;7622;42.724;23.250;2023-02-14T06:17:29;95903.34;;;2.75;100.00
15050;BME280;7622;42.724;23.250;2023-02-14T06:19:55;95891.78;;;2.85;100.00
15050;BME280;7622;42.724;23.250;2023-02-14T06:22:23;95899.97;;;2.93;100.00
15050;BME280;7622;42.724;23.250;2023-02-14T06:24:50;95902.75;;;2.89;100.00
15050;BME280;7622;42.724;23.250;2023-02-14T06:27:17;95905.94;;;2.94;100.00
15050;BME280;7622;42.724;23.250;2023-02-14T06:29:44;95907.47;;;2.98;100.00
15050;BME280;7622;42.724;23.250;2023-02-14T06:32:10;95903.88;;;3.02;100.00
15050;BME280;7622;42.724;23.250;2023-02-14T06:34:37;95894.50;;;3.01;100.00
15050;BME280;7622;42.724;23.250;2023-02-14T06:37:05;95899.31;;;3.27;100.00
15050;BME280;7622;42.724;23.250;2023-02-14T06:39:33;95899.47;;;3.24;100.00
15050;BME280;7622;42.724;23.250;2023-02-14T06:42:00;95896.13;;;3.22;100.00
15050;BME280;7622;42.724;23.250;2023-02-14T06:44:26;95901.25;;;3.22;100.00
15050;BME280;7622;42.724;23.250;2023-02-14T06:46:53;95901.19;;;3.42;100.00
15050;BME280;7622;42.724;23.250;2023-02-14T06:49:20;95853.38;;;3.21;100.00
15050;BME280;7622;42.724;23.250;2023-02-14T06:51:48;95890.00;;;3.62;100.00
15050;BME280;7622;42.724;23.250;2023-02-14T06:54:15;95885.94;;;3.75;100.00
15050;BME280;7622;42.724;23.250;2023-02-14T06:56:43;95877.50;;;3.54;100.00
15050;BME280;7622;42.724;23.250;2023-02-14T06:59:10;95881.50;;;3.60;100.00
15050;BME280;7622;42.724;23.250;2023-02-14T07:01:37;95869.47;;;3.43;100.00
15050;BME280;7622;42.724;23.250;2023-02-14T07:04:04;95882.53;;;3.39;100.00
15050;BME280;7622;42.724;23.250;2023-02-14T07:06:30;95871.75;;;3.49;100.00
15050;BME280;7622;42.724;23.250;2023-02-14T07:08:57;95864.47;;;3.40;100.00
15050;BME280;7622;42.724;23.250;2023-02-14T07:11:24;95866.34;;;3.37;100.00
15050;BME280;7622;42.724;23.250;2023-02-14T07:13:54;95851.44;;;3.45;100.00
15050;BME280;7622;42.724;23.250;2023-02-14T07:16:21;95866.41;;;3.54;100.00
15050;BME280;7622;42.724;23.250;2023-02-14T07:18:47;95878.44;;;3.35;100.00
15050;BME280;7622;42.724;23.250;2023-02-14T07:21:14;95878.06;;;3.42;100.00
15050;BME280;7622;42.724;23.250;2023-02-14T07:23:41;95873.44;;;3.50;100.00
15050;BME280;7622;42.724;23.250;2023-02-14T07:26:12;95872.94;;;3.42;100.00
15050;BME280;7622;42.724;23.250;2023-02-14T07:28:42;95870.03;;;3.31;100.00
15050;BME280;7622;42.724;23.250;2023-02-14T07:31:10;95874.91;;;3.37;100.00
15050;BME280;7622;42.724;23.250;2023-02-14T07:33:37;95883.91;;;3.27;100.00
15050;BME280;7622;42.724;23.250;2023-02-14T07:36:05;95880.72;;;3.22;100.00
15050;BME280;7622;42.724;23.250;2023-02-14T07:38:32;95831.47;;;3.14;100.00
15050;BME280;7622;42.724;23.250;2023-02-14T07:40:59;95874.97;;;3.36;100.00
15050;BME280;7622;42.724;23.250;2023-02-14T07:43:26;95879.19;;;3.37;100.00
15050;BME280;7622;42.724;23.250;2023-02-14T07:45:53;95869.06;;;3.34;100.00
15050;BME280;7622;42.724;23.250;2023-02-14T07:48:21;95881.56;;;3.23;100.00
15050;BME280;7622;42.724;23.250;2023-02-14T07:50:49;95886.34;;;3.30;100.00
15050;BME280;7622;42.724;23.250;2023-02-14T07:53:17;95876.19;;;3.27;100.00
15050;BME280;7622;42.724;23.250;2023-02-14T07:55:47;95881.97;;;3.32;100.00
15050;BME280;7622;42.724;23.250;2023-02-14T07:58:14;95894.19;;;3.27;100.00
15050;BME280;7622;42.724;23.250;2023-02-14T08:00:41;95906.00;;;3.31;100.00
15050;BME280;7622;42.724;23.250;2023-02-14T08:03:08;95906.94;;;3.29;100.00
15050;BME280;7622;42.724;23.250;2023-02-14T08:05:36;95895.22;;;3.42;100.00
15050;BME280;7622;42.724;23.250;2023-02-14T08:08:03;95900.41;;;3.40;100.00
15050;BME280;7622;42.724;23.250;2023-02-14T08:10:30;95914.03;;;3.24;100.00
15050;BME280;7622;42.724;23.250;2023-02-14T08:12:58;95912.75;;;3.32;100.00
15050;BME280;7622;42.724;23.250;2023-02-14T08:15:29;95907.16;;;3.43;100.00
15050;BME280;7622;42.724;23.250;2023-02-14T08:18:14;95869.47;;;3.06;100.00
15050;BME280;7622;42.724;23.250;2023-02-14T08:20:43;95903.09;;;3.39;100.00
15050;BME280;7622;42.724;23.250;2023-02-14T08:23:10;95904.16;;;3.33;100.00
15050;BME280;7622;42.724;23.250;2023-02-14T08:25:37;95919.28;;;3.39;100.00
15050;BME280;7622;42.724;23.250;2023-02-14T08:28:05;95910.34;;;3.29;100.00
15050;BME280;7622;42.724;23.250;2023-02-14T08:30:34;95910.97;;;3.34;100.00
15050;BME280;7622;42.724;23.250;2023-02-14T08:33:01;95914.22;;;3.19;100.00
15050;BME280;7622;42.724;23.250;2023-02-14T08:35:27;95910.06;;;3.16;100.00
15050;BME280;7622;42.724;23.250;2023-02-14T08:37:56;95901.38;;;3.19;100.00
15050;BME280;7622;42.724;23.250;2023-02-14T08:40:23;95905.63;;;3.20;100.00
15050;BME280;7622;42.724;23.250;2023-02-14T08:42:50;95919.22;;;3.22;100.00
15050;BME280;7622;42.724;23.250;2023-02-14T08:45:17;95910.56;;;3.25;100.00
15050;BME280;7622;42.724;23.250;2023-02-14T08:47:44;95917.22;;;3.29;100.00
15050;BME280;7622;42.724;23.250;2023-02-14T08:50:13;95906.25;;;3.25;100.00
15050;BME280;7622;42.724;23.250;2023-02-14T08:52:41;95913.19;;;3.23;100.00
15050;BME280;7622;42.724;23.250;2023-02-14T08:55:10;95908.06;;;3.23;100.00
15050;BME280;7622;42.724;23.250;2023-02-14T08:57:38;95907.78;;;3.29;100.00
15050;BME280;7622;42.724;23.250;2023-02-14T09:00:06;95910.84;;;3.37;100.00
15050;BME280;7622;42.724;23.250;2023-02-14T09:02:34;95918.50;;;3.39;100.00
15050;BME280;7622;42.724;23.250;2023-02-14T09:05:00;95914.44;;;3.33;100.00
15050;BME280;7622;42.724;23.250;2023-02-14T09:07:27;95903.59;;;3.27;100.00
15050;BME280;7622;42.724;23.250;2023-02-14T09:09:54;95901.53;;;3.35;100.00
15050;BME280;7622;42.724;23.250;2023-02-14T09:12:22;95904.31;;;3.30;100.00
15050;BME280;7622;42.724;23.250;2023-02-14T09:14:49;95897.22;;;3.35;100.00
15050;BME280;7622;42.724;23.250;2023-02-14T09:17:16;95861.38;;;3.15;100.00
15050;BME280;7622;42.724;23.250;2023-02-14T09:19:43;95894.38;;;3.41;100.00
15050;BME280;7622;42.724;23.250;2023-02-14T09:22:10;95897.78;;;3.42;100.00
15050;BME280;7622;42.724;23.250;2023-02-14T09:24:38;95902.44;;;3.52;100.00
15050;BME280;7622;42.724;23.250;2023-02-14T09:27:06;95889.75;;;3.49;100.00
15050;BME280;7622;42.724;23.250;2023-02-14T09:29:34;95901.06;;;3.45;100.00
15050;BME280;7622;42.724;23.250;2023-02-14T09:32:03;95904.59;;;3.43;100.00
15050;BME280;7622;42.724;23.250;2023-02-14T09:34:32;95889.59;;;3.34;100.00
15050;BME280;7622;42.724;23.250;2023-02-14T09:37:17;95889.88;;;3.28;100.00
15050;BME280;7622;42.724;23.250;2023-02-14T09:39:43;95900.03;;;3.31;100.00
15050;BME280;7622;42.724;23.250;2023-02-14T09:42:21;95897.44;;;3.31;100.00
15050;BME280;7622;42.724;23.250;2023-02-14T09:44:53;95887.88;;;3.34;100.00
15050;BME280;7622;42.724;23.250;2023-02-14T09:47:32;95885.84;;;3.22;100.00
15050;BME280;7622;42.724;23.250;2023-02-14T09:50:03;95890.28;;;3.18;100.00
15050;BME280;7622;42.724;23.250;2023-02-14T09:52:30;95887.38;;;3.26;100.00
15050;BME280;7622;42.724;23.250;2023-02-14T09:54:59;95856.28;;;3.13;100.00
15050;BME280;7622;42.724;23.250;2023-02-14T09:57:34;95881.69;;;3.38;100.00
15050;BME280;7622;42.724;23.250;2023-02-14T10:00:12;95875.72;;;3.38;100.00
15050;BME280;7622;42.724;23.250;2023-02-14T10:02:52;95879.59;;;3.28;100.00
15050;BME280;7622;42.724;23.250;2023-02-14T10:05:25;95879.25;;;3.35;100.00
15050;BME280;7622;42.724;23.250;2023-02-14T10:07:58;95878.91;;;3.43;100.00
15050;BME280;7622;42.724;23.250;2023-02-14T10:10:30;95871.69;;;3.32;100.00
15050;BME280;7622;42.724;23.250;2023-02-14T10:13:04;95866.84;;;3.26;100.00
15050;BME280;7622;42.724;23.250;2023-02-14T10:15:38;95866.72;;;3.29;100.00
15050;BME280;7622;42.724;23.250;2023-02-14T10:18:11;95869.88;;;3.34;100.00
15050;BME280;7622;42.724;23.250;2023-02-14T10:20:42;95879.03;;;3.40;100.00
15050;BME280;7622;42.724;23.250;2023-02-14T10:23:29;95859.72;;;3.69;100.00
15050;BME280;7622;42.724;23.250;2023-02-14T10:26:00;95868.06;;;3.55;100.00
15050;BME280;7622;42.724;23.250;2023-02-14T10:28:31;95866.28;;;3.38;100.00
15050;BME280;7622;42.724;23.250;2023-02-14T10:31:17;95855.81;;;3.24;100.00
15050;BME280;7622;42.724;23.250;2023-02-14T10:33:51;95862.69;;;3.24;100.00
15050;BME280;7622;42.724;23.250;2023-02-14T10:36:27;95865.44;;;3.19;100.00
15050;BME280;7622;42.724;23.250;2023-02-14T10:39:02;95840.06;;;2.94;100.00
15050;BME280;7622;42.724;23.250;2023-02-14T10:41:41;95860.66;;;3.11;100.00
15050;BME280;7622;42.724;23.250;2023-02-14T10:44:26;95862.13;;;3.17;100.00
15050;BME280;7622;42.724;23.250;2023-02-14T10:47:00;95856.56;;;3.26;100.00
15050;BME280;7622;42.724;23.250;2023-02-14T10:49:38;95824.31;;;3.02;100.00
15050;BME280;7622;42.724;23.250;2023-02-14T10:52:14;95864.53;;;3.20;100.00
15050;BME280;7622;42.724;23.250;2023-02-14T10:54:45;95857.75;;;3.19;100.00
15050;BME280;7622;42.724;23.250;2023-02-14T10:57:18;95848.25;;;3.21;100.00
15050;BME280;7622;42.724;23.250;2023-02-14T10:59:50;95843.66;;;3.28;100.00
15050;BME280;7622;42.724;23.250;2023-02-14T11:02:24;95842.75;;;3.29;100.00
15050;BME280;7622;42.724;23.250;2023-02-14T11:04:53;95849.16;;;3.20;100.00
15050;BME280;7622;42.724;23.250;2023-02-14T11:07:20;95848.13;;;3.24;100.00
15050;BME280;7622;42.724;23.250;2023-02-14T11:09:48;95833.56;;;3.25;100.00
15050;BME280;7622;42.724;23.250;2023-02-14T11:12:30;95838.03;;;3.20;100.00
15050;BME280;7622;42.724;23.250;2023-02-14T11:15:08;95810.91;;;3.14;100.00
15050;BME280;7622;42.724;23.250;2023-02-14T11:17:37;95836.03;;;3.26;100.00
15050;BME280;7622;42.724;23.250;2023-02-14T11:20:20;95844.63;;;3.25;100.00
15050;BME280;7622;42.724;23.250;2023-02-14T11:22:49;95832.75;;;3.41;100.00
15050;BME280;7622;42.724;23.250;2023-02-14T11:25:19;95823.94;;;3.47;100.00
15050;BME280;7622;42.724;23.250;2023-02-14T11:27:48;95803.84;;;3.19;100.00
15050;BME280;7622;42.724;23.250;2023-02-14T11:30:23;95807.84;;;3.43;100.00
15050;BME280;7622;42.724;23.250;2023-02-14T11:32:53;95812.94;;;3.62;100.00
15050;BME280;7622;42.724;23.250;2023-02-14T11:35:22;95810.94;;;3.86;100.00
15050;BME280;7622;42.724;23.250;2023-02-14T11:37:53;95821.50;;;3.97;100.00
15050;BME280;7622;42.724;23.250;2023-02-14T11:40:26;95771.84;;;3.79;100.00
15050;BME280;7622;42.724;23.250;2023-02-14T11:42:56;95823.78;;;4.03;100.00
15050;BME280;7622;42.724;23.250;2023-02-14T11:45:33;95806.47;;;3.89;100.00
15050;BME280;7622;42.724;23.250;2023-02-14T11:48:15;95817.97;;;4.00;100.00
15050;BME280;7622;42.724;23.250;2023-02-14T11:50:43;95812.50;;;4.06;100.00
15050;BME280;7622;42.724;23.250;2023-02-14T11:53:22;95808.22;;;4.06;100.00
15050;BME280;7622;42.724;23.250;2023-02-14T11:55:51;95784.94;;;3.92;100.00
15050;BME280;7622;42.724;23.250;2023-02-14T11:58:30;95772.91;;;3.75;100.00
15050;BME280;7622;42.724;23.250;2023-02-14T12:00:59;95799.81;;;4.03;100.00
15050;BME280;7622;42.724;23.250;2023-02-14T12:03:28;95797.00;;;3.90;100.00
15050;BME280;7622;42.724;23.250;2023-02-14T12:05:59;95794.06;;;3.97;100.00
15050;BME280;7622;42.724;23.250;2023-02-14T12:08:28;95791.41;;;3.82;100.00
15050;BME280;7622;42.724;23.250;2023-02-14T12:11:01;95783.03;;;3.78;100.00
15050;BME280;7622;42.724;23.250;2023-02-14T12:13:28;95780.75;;;3.89;100.00
15050;BME280;7622;42.724;23.250;2023-02-14T12:15:57;95781.50;;;4.09;100.00
15050;BME280;7622;42.724;23.250;2023-02-14T12:18:42;95779.03;;;4.07;100.00
15050;BME280;7622;42.724;23.250;2023-02-14T12:21:24;95786.81;;;4.06;100.00
15050;BME280;7622;42.724;23.250;2023-02-14T12:23:59;95778.22;;;4.22;100.00
15050;BME280;7622;42.724;23.250;2023-02-14T12:26:31;95781.44;;;4.27;100.00
15050;BME280;7622;42.724;23.250;2023-02-14T12:29:05;95769.94;;;4.17;100.00
15050;BME280;7622;42.724;23.250;2023-02-14T12:31:35;95770.69;;;4.19;100.00
15050;BME280;7622;42.724;23.250;2023-02-14T12:34:03;95771.72;;;4.32;100.00
15050;BME280;7622;42.724;23.250;2023-02-14T12:36:47;95770.06;;;4.31;100.00
15050;BME280;7622;42.724;23.250;2023-02-14T12:39:28;95769.63;;;4.23;100.00
15050;BME280;7622;42.724;23.250;2023-02-14T12:42:11;95769.78;;;4.20;100.00
15050;BME280;7622;42.724;23.250;2023-02-14T12:44:48;95765.56;;;4.19;100.00
15050;BME280;7622;42.724;23.250;2023-02-14T12:47:26;95757.00;;;4.19;100.00
15050;BME280;7622;42.724;23.250;2023-02-14T12:53:03;95759.31;;;4.23;100.00
15050;BME280;7622;42.724;23.250;2023-02-14T12:55:40;95765.38;;;4.22;100.00
15050;BME280;7622;42.724;23.250;2023-02-14T12:58:19;95739.97;;;4.16;100.00
15050;BME280;7622;42.724;23.250;2023-02-14T13:01:00;95764.16;;;4.29;100.00
15050;BME280;7622;42.724;23.250;2023-02-14T13:03:49;95756.03;;;4.21;100.00
15050;BME280;7622;42.724;23.250;2023-02-14T13:06:28;95749.72;;;4.27;100.00
15050;BME280;7622;42.724;23.250;2023-02-14T13:09:15;95750.25;;;4.33;100.00
15050;BME280;7622;42.724;23.250;2023-02-14T13:11:52;95745.09;;;4.33;100.00
15050;BME280;7622;42.724;23.250;2023-02-14T13:14:35;95735.28;;;4.24;100.00
15050;BME280;7622;42.724;23.250;2023-02-14T13:17:12;95750.59;;;4.43;100.00
15050;BME280;7622;42.724;23.250;2023-02-14T13:19:48;95750.06;;;4.36;100.00
15050;BME280;7622;42.724;23.250;2023-02-14T13:22:23;95746.00;;;4.32;100.00
15050;BME280;7622;42.724;23.250;2023-02-14T13:24:52;95748.91;;;4.26;100.00
15050;BME280;7622;42.724;23.250;2023-02-14T13:27:24;95743.75;;;4.26;100.00
15050;BME280;7622;42.724;23.250;2023-02-14T13:29:56;95748.44;;;4.35;100.00